createdAt,value
2023-09-23T00:00:12.126Z,2.17
2023-09-23T00:02:38.909Z,1.70
2023-09-23T00:05:07.637Z,2.38
2023-09-23T00:07:34.431Z,1.60
2023-09-23T00:10:01.224Z,2.13
2023-09-23T00:12:28.024Z,2.65
2023-09-23T00:14:54.786Z,2.05
2023-09-23T00:17:21.521Z,3.63
2023-09-23T00:19:48.307Z,2.22
2023-09-23T00:22:16.420Z,2.35
2023-09-23T00:24:43.225Z,3.10
2023-09-23T00:27:09.966Z,3.30
2023-09-23T00:29:38.911Z,2.88
2023-09-23T00:34:32.458Z,2.55
2023-09-23T00:36:59.176Z,2.15
2023-09-23T00:39:30.147Z,2.42
2023-09-23T00:41:56.974Z,2.30
2023-09-23T00:44:23.708Z,2.65
2023-09-23T00:46:50.512Z,3.08
2023-09-23T00:49:17.717Z,4.80
2023-09-23T00:51:44.431Z,5.90
2023-09-23T00:54:11.737Z,7.18
2023-09-23T00:56:40.010Z,7.03
2023-09-23T00:59:06.901Z,6.70
2023-09-23T01:01:33.786Z,7.28
2023-09-23T01:04:00.714Z,6.97
2023-09-23T01:06:27.557Z,6.53
2023-09-23T01:08:54.484Z,9.18
2023-09-23T01:11:21.882Z,11.68
2023-09-23T01:13:50.324Z,13.02
2023-09-23T01:16:17.219Z,14.27
2023-09-23T01:18:44.538Z,18.08
2023-09-23T01:21:11.580Z,14.45
2023-09-23T01:23:39.682Z,14.23
2023-09-23T01:26:06.442Z,13.13
2023-09-23T01:28:34.397Z,16.02
2023-09-23T01:31:01.298Z,14.57
2023-09-23T01:33:28.203Z,13.35
2023-09-23T01:35:55.095Z,14.10
2023-09-23T01:38:21.918Z,16.73
2023-09-23T01:40:50.161Z,16.38
2023-09-23T01:43:16.932Z,17.42
2023-09-23T01:45:43.871Z,17.00
2023-09-23T01:48:10.730Z,15.65
2023-09-23T01:50:37.462Z,16.42
2023-09-23T01:53:04.952Z,17.23
2023-09-23T01:55:31.873Z,20.35
2023-09-23T01:57:59.962Z,17.17
2023-09-23T02:00:26.752Z,18.03
2023-09-23T02:02:53.985Z,19.95
2023-09-23T02:05:21.776Z,17.52
2023-09-23T02:07:48.918Z,26.90
2023-09-23T02:10:16.142Z,22.75
2023-09-23T02:12:43.262Z,21.10
2023-09-23T02:15:12.205Z,22.85
2023-09-23T02:20:06.818Z,21.08
2023-09-23T02:22:33.619Z,24.40
2023-09-23T02:25:00.423Z,22.48
2023-09-23T02:27:27.242Z,22.60
2023-09-23T02:29:53.992Z,22.55
2023-09-23T02:32:22.173Z,23.42
2023-09-23T02:34:49.021Z,22.85
2023-09-23T02:37:15.836Z,24.33
2023-09-23T02:39:42.605Z,25.77
2023-09-23T02:42:09.359Z,24.02
2023-09-23T02:44:36.135Z,24.92
2023-09-23T02:47:02.895Z,20.10
2023-09-23T02:49:30.948Z,20.65
2023-09-23T02:51:57.706Z,23.33
2023-09-23T02:54:24.443Z,19.92
2023-09-23T02:56:51.171Z,19.23
2023-09-23T02:59:17.933Z,23.27
2023-09-23T03:01:45.290Z,17.77
2023-09-23T03:04:12.393Z,17.55
2023-09-23T03:06:40.811Z,19.75
2023-09-23T03:09:07.629Z,18.13
2023-09-23T03:11:34.377Z,19.60
2023-09-23T03:14:01.178Z,18.55
2023-09-23T03:16:28.017Z,19.95
2023-09-23T03:18:56.822Z,17.38
2023-09-23T03:21:23.659Z,19.92
2023-09-23T03:23:51.759Z,17.80
2023-09-23T03:26:20.103Z,19.47
2023-09-23T03:28:47.175Z,19.58
2023-09-23T03:31:14.044Z,21.08
2023-09-23T03:33:40.841Z,14.70
2023-09-23T03:36:14.836Z,15.73
2023-09-23T03:38:41.615Z,19.85
2023-09-23T03:41:10.142Z,17.58
2023-09-23T03:43:36.940Z,15.07
2023-09-23T03:46:03.728Z,20.40
2023-09-23T03:48:30.561Z,17.00
2023-09-23T03:50:57.764Z,17.60
2023-09-23T03:53:24.911Z,18.58
2023-09-23T03:55:52.770Z,17.70
2023-09-23T03:58:20.846Z,17.42
2023-09-23T04:00:47.798Z,20.37
2023-09-23T04:03:14.719Z,21.80
2023-09-23T04:05:41.533Z,23.45
2023-09-23T04:08:08.312Z,23.40
2023-09-23T04:10:37.747Z,22.55
2023-09-23T04:13:04.744Z,23.50
2023-09-23T04:15:32.818Z,24.75
2023-09-23T04:17:59.586Z,21.37
2023-09-23T04:20:26.382Z,20.23
2023-09-23T04:22:53.290Z,18.73
2023-09-23T04:25:20.198Z,18.95
2023-09-23T04:27:46.929Z,18.05
2023-09-23T04:30:13.838Z,22.23
2023-09-23T04:32:42.882Z,20.77
2023-09-23T04:37:37.143Z,20.80
2023-09-23T04:40:05.119Z,21.77
2023-09-23T04:42:31.938Z,21.60
2023-09-23T04:44:58.840Z,20.65
2023-09-23T04:47:25.546Z,18.00
2023-09-23T04:49:53.728Z,19.65
2023-09-23T04:52:20.558Z,15.00
2023-09-23T04:54:47.454Z,16.60
2023-09-23T04:57:14.294Z,15.35
2023-09-23T04:59:41.422Z,16.48
2023-09-23T05:02:08.284Z,12.43
2023-09-23T05:04:35.135Z,13.43
2023-09-23T05:07:03.301Z,17.42
2023-09-23T05:09:30.356Z,16.95
2023-09-23T05:11:57.232Z,12.30
2023-09-23T05:14:24.154Z,12.75
2023-09-23T05:16:50.904Z,16.13
2023-09-23T05:19:17.864Z,13.57
2023-09-23T05:21:44.679Z,12.50
2023-09-23T05:24:12.813Z,14.88
2023-09-23T05:26:39.566Z,13.97
2023-09-23T05:29:06.332Z,12.20
2023-09-23T05:31:33.339Z,14.40
2023-09-23T05:34:00.149Z,15.75
2023-09-23T05:36:26.898Z,13.07
2023-09-23T05:38:53.704Z,13.23
2023-09-23T05:41:21.778Z,12.52
2023-09-23T05:43:49.718Z,14.63
2023-09-23T05:46:16.592Z,15.27
2023-09-23T05:48:43.440Z,12.60
2023-09-23T05:51:10.271Z,12.27
2023-09-23T05:53:37.032Z,13.00
2023-09-23T05:56:04.173Z,14.55
2023-09-23T05:58:32.271Z,11.93
2023-09-23T06:00:59.068Z,13.53
2023-09-23T06:03:25.949Z,13.77
2023-09-23T06:05:52.802Z,11.38
2023-09-23T06:08:19.833Z,16.00
2023-09-23T06:10:46.713Z,14.23
2023-09-23T06:13:13.519Z,12.45
2023-09-23T06:15:41.664Z,12.13
2023-09-23T06:18:08.776Z,15.88
2023-09-23T06:20:36.084Z,15.02
2023-09-23T06:23:02.882Z,14.15
2023-09-23T06:25:29.742Z,10.45
2023-09-23T06:27:57.649Z,14.07
2023-09-23T06:30:24.438Z,12.45
2023-09-23T06:32:52.551Z,13.63
2023-09-23T06:35:19.409Z,12.93
2023-09-23T06:37:46.213Z,12.07
2023-09-23T06:40:13.096Z,9.98
2023-09-23T06:42:41.416Z,14.00
2023-09-23T06:45:09.065Z,10.48
2023-09-23T06:47:35.933Z,10.50
2023-09-23T06:50:04.505Z,10.45
2023-09-23T06:52:31.351Z,8.70
2023-09-23T06:54:58.294Z,10.60
2023-09-23T06:57:25.039Z,8.20
2023-09-23T06:59:52.990Z,9.55
2023-09-23T07:02:19.901Z,10.40
2023-09-23T07:04:46.808Z,13.75
2023-09-23T07:07:15.042Z,10.27
2023-09-23T07:09:41.791Z,9.30
2023-09-23T07:12:08.545Z,8.68
2023-09-23T07:14:35.260Z,7.03
2023-09-23T07:17:02.102Z,7.03
2023-09-23T07:19:28.927Z,6.60
2023-09-23T07:21:55.713Z,9.52
2023-09-23T07:24:23.865Z,10.00
2023-09-23T07:26:50.665Z,7.90
2023-09-23T07:29:17.427Z,7.18
2023-09-23T07:31:44.248Z,10.85
2023-09-23T07:34:12.163Z,8.30
2023-09-23T07:36:39.019Z,8.82
2023-09-23T07:39:05.852Z,9.00
2023-09-23T07:41:34.042Z,12.13
2023-09-23T07:44:00.890Z,8.38
2023-09-23T07:46:27.684Z,8.75
2023-09-23T07:48:54.524Z,8.45
2023-09-23T07:51:21.522Z,6.97
2023-09-23T07:53:48.657Z,8.35
2023-09-23T07:56:15.877Z,10.07
2023-09-23T07:58:44.025Z,9.45
2023-09-23T08:01:10.773Z,8.60
2023-09-23T08:03:37.761Z,9.07
2023-09-23T08:06:04.532Z,7.70
2023-09-23T08:08:31.364Z,5.20
2023-09-23T08:10:58.205Z,11.52
2023-09-23T08:13:25.125Z,6.00
2023-09-23T08:15:58.127Z,8.48
2023-09-23T08:18:25.253Z,9.20
2023-09-23T08:20:56.430Z,6.85
2023-09-23T08:23:23.229Z,11.80
2023-09-23T08:25:50.076Z,6.55
2023-09-23T08:28:16.896Z,5.57
2023-09-23T08:30:43.732Z,7.10
2023-09-23T08:33:11.976Z,7.65
2023-09-23T08:35:39.370Z,5.25
2023-09-23T08:38:06.252Z,7.57
2023-09-23T08:40:35.482Z,9.50
2023-09-23T08:43:05.813Z,9.82
2023-09-23T08:45:32.707Z,7.03
2023-09-23T08:48:00.185Z,6.13
2023-09-23T08:50:29.294Z,7.30
2023-09-23T08:52:56.906Z,5.85
2023-09-23T08:55:26.493Z,6.18
2023-09-23T08:57:54.834Z,8.20
2023-09-23T09:00:21.903Z,8.23
2023-09-23T09:02:48.730Z,7.78
2023-09-23T09:05:15.626Z,9.23
2023-09-23T09:07:43.977Z,7.15
2023-09-23T09:10:11.227Z,7.00
2023-09-23T09:12:38.073Z,6.05
2023-09-23T09:15:05.558Z,6.22
2023-09-23T09:17:32.782Z,8.75
2023-09-23T09:20:01.691Z,6.53
2023-09-23T09:24:57.129Z,7.32
2023-09-23T09:27:23.926Z,8.98
2023-09-23T09:29:57.119Z,5.22
2023-09-23T09:32:31.356Z,9.77
2023-09-23T09:35:00.824Z,9.20
2023-09-23T09:37:28.492Z,4.60
2023-09-23T09:39:58.590Z,7.28
2023-09-23T09:42:29.575Z,9.27
2023-09-23T09:44:56.963Z,7.95
2023-09-23T09:47:24.117Z,6.65
2023-09-23T09:49:51.909Z,7.03
2023-09-23T09:52:22.707Z,5.07
2023-09-23T09:54:50.844Z,5.95
2023-09-23T09:57:19.744Z,6.65
2023-09-23T10:02:13.390Z,8.30
2023-09-23T10:04:46.641Z,6.28
2023-09-23T10:07:13.466Z,6.65
2023-09-23T10:09:50.408Z,5.95
2023-09-23T10:12:18.641Z,5.53
2023-09-23T10:14:53.895Z,7.88
2023-09-23T10:17:27.564Z,6.00
2023-09-23T10:19:54.910Z,6.78
2023-09-23T10:22:21.921Z,7.43
2023-09-23T10:25:00.231Z,4.95
2023-09-23T10:27:28.418Z,6.40
2023-09-23T10:29:56.303Z,4.20
2023-09-23T10:32:24.943Z,7.93
2023-09-23T10:34:53.566Z,4.88
2023-09-23T10:37:27.654Z,6.70
2023-09-23T10:39:54.470Z,5.60
2023-09-23T10:42:21.302Z,5.88
2023-09-23T10:44:49.532Z,7.18
2023-09-23T10:47:16.368Z,5.22
2023-09-23T10:49:43.281Z,5.10
2023-09-23T10:52:10.889Z,5.57
2023-09-23T10:54:37.730Z,4.20
2023-09-23T10:57:04.525Z,5.28
2023-09-23T10:59:31.735Z,6.72
2023-09-23T11:02:00.060Z,6.75
2023-09-23T11:04:26.971Z,4.40
2023-09-23T11:06:53.972Z,5.63
2023-09-23T11:09:20.771Z,9.15
2023-09-23T11:11:47.571Z,6.47
2023-09-23T11:14:14.949Z,6.53
2023-09-23T11:16:43.047Z,6.63
2023-09-23T11:19:11.410Z,5.47
2023-09-23T11:21:45.062Z,8.73
2023-09-23T11:24:11.801Z,6.57
2023-09-23T11:26:39.876Z,5.93
2023-09-23T11:29:07.876Z,5.45
2023-09-23T11:31:34.735Z,4.70
2023-09-23T11:34:01.584Z,5.00
2023-09-23T11:36:29.735Z,7.20
2023-09-23T11:38:56.612Z,6.03
2023-09-23T11:41:23.518Z,6.82
2023-09-23T11:43:50.437Z,5.28
2023-09-23T11:46:17.399Z,4.88
2023-09-23T11:48:44.601Z,7.07
2023-09-23T11:51:11.508Z,5.20
2023-09-23T11:53:39.692Z,4.78
2023-09-23T11:56:06.484Z,5.43
2023-09-23T11:58:33.330Z,3.83
2023-09-23T12:01:00.156Z,4.45
2023-09-23T12:03:27.054Z,5.93
2023-09-23T12:05:55.270Z,5.82
2023-09-23T12:08:22.420Z,6.13
2023-09-23T12:10:50.736Z,6.80
2023-09-23T12:13:17.570Z,4.50
2023-09-23T12:15:44.404Z,5.03
2023-09-23T12:18:11.213Z,4.75
2023-09-23T12:20:38.059Z,5.43
2023-09-23T12:23:06.464Z,6.15
2023-09-23T12:25:33.178Z,4.45
2023-09-23T12:28:01.257Z,6.35
2023-09-23T12:30:27.976Z,6.68
2023-09-23T12:32:54.864Z,3.83
2023-09-23T12:35:21.873Z,4.00
2023-09-23T12:37:48.710Z,3.30
2023-09-23T12:40:15.641Z,4.00
2023-09-23T12:42:42.428Z,4.38
2023-09-23T12:45:10.935Z,5.72
2023-09-23T12:47:55.179Z,6.53
2023-09-23T12:50:24.176Z,3.47
2023-09-23T12:52:50.969Z,2.45
2023-09-23T12:55:17.840Z,3.05
2023-09-23T12:57:44.631Z,2.70
2023-09-23T13:00:13.713Z,5.30
2023-09-23T13:02:40.665Z,5.07
2023-09-23T13:05:08.101Z,5.80
2023-09-23T13:07:34.826Z,5.68
2023-09-23T13:10:01.693Z,4.68
2023-09-23T13:12:28.520Z,6.43
2023-09-23T13:14:55.280Z,7.47
2023-09-23T13:17:23.624Z,5.05
2023-09-23T13:19:50.619Z,5.00
2023-09-23T13:22:17.430Z,3.55
2023-09-23T13:24:44.144Z,4.10
2023-09-23T13:27:10.934Z,2.90
2023-09-23T13:29:37.819Z,4.28
2023-09-23T13:32:06.326Z,3.05
2023-09-23T13:34:34.535Z,2.90
2023-09-23T13:37:01.417Z,3.17
2023-09-23T13:39:28.166Z,3.05
2023-09-23T13:41:54.982Z,5.93
2023-09-23T13:44:21.853Z,3.67
2023-09-23T13:46:48.725Z,3.53
2023-09-23T13:49:15.478Z,4.32
2023-09-23T13:51:43.621Z,3.78
2023-09-23T13:54:10.532Z,2.95
2023-09-23T13:56:37.429Z,2.85
2023-09-23T13:59:04.347Z,4.18
2023-09-23T14:01:31.187Z,1.95
2023-09-23T14:03:58.018Z,4.72
2023-09-23T14:06:25.113Z,3.25
2023-09-23T14:08:53.242Z,6.93
2023-09-23T14:11:20.171Z,4.65
2023-09-23T14:13:47.162Z,5.78
2023-09-23T14:16:14.081Z,3.63
2023-09-23T14:18:41.982Z,6.27
2023-09-23T14:21:08.850Z,2.78
2023-09-23T14:23:35.685Z,6.35
2023-09-23T14:26:03.999Z,5.10
2023-09-23T14:28:30.765Z,3.33
2023-09-23T14:30:57.669Z,5.55
2023-09-23T14:33:24.690Z,4.57
2023-09-23T14:35:51.542Z,4.25
2023-09-23T14:38:18.308Z,3.65
2023-09-23T14:40:45.102Z,5.72
2023-09-23T14:43:13.217Z,3.75
2023-09-23T14:45:39.954Z,5.00
2023-09-23T14:48:07.082Z,5.40
2023-09-23T14:50:34.009Z,5.25
2023-09-23T14:53:00.785Z,3.47
2023-09-23T14:55:27.600Z,6.22
2023-09-23T14:57:54.374Z,6.05
2023-09-23T15:00:22.586Z,4.00
2023-09-23T15:02:49.414Z,4.35
2023-09-23T15:05:16.411Z,5.30
2023-09-23T15:07:43.232Z,3.65
2023-09-23T15:10:10.486Z,4.18
2023-09-23T15:12:37.266Z,4.63
2023-09-23T15:15:04.185Z,2.63
2023-09-23T15:17:32.458Z,4.20
2023-09-23T15:19:59.290Z,2.38
2023-09-23T15:22:26.117Z,2.10
2023-09-23T15:24:52.957Z,3.10
2023-09-23T15:27:19.740Z,2.03
2023-09-23T15:29:46.733Z,4.32
2023-09-23T15:32:13.565Z,3.38
2023-09-23T15:34:41.722Z,2.45
2023-09-23T15:37:08.535Z,4.40
2023-09-23T15:39:35.361Z,3.13
2023-09-23T15:42:02.219Z,4.20
2023-09-23T15:44:29.089Z,4.00
2023-09-23T15:46:55.845Z,3.47
2023-09-23T15:49:22.598Z,3.45
2023-09-23T15:51:50.788Z,3.10
2023-09-23T15:54:17.590Z,3.92
2023-09-23T15:56:44.438Z,3.22
2023-09-23T15:59:11.253Z,3.22
2023-09-23T16:01:38.147Z,3.47
2023-09-23T16:04:05.704Z,3.20
2023-09-23T16:06:32.684Z,2.45
2023-09-23T16:09:00.790Z,3.03
2023-09-23T16:11:27.595Z,1.83
2023-09-23T16:13:54.351Z,3.38
2023-09-23T16:16:21.147Z,4.32
2023-09-23T16:18:48.207Z,2.45
2023-09-23T16:21:15.036Z,2.90
2023-09-23T16:23:42.071Z,2.42
2023-09-23T16:26:10.241Z,2.22
2023-09-23T16:28:37.036Z,4.57
2023-09-23T16:31:03.838Z,3.13
2023-09-23T16:33:30.604Z,2.05
2023-09-23T16:35:57.458Z,3.33
2023-09-23T16:38:24.245Z,3.85
2023-09-23T16:40:51.246Z,2.13
2023-09-23T16:43:19.576Z,2.80
2023-09-23T16:45:46.407Z,2.90
2023-09-23T16:48:13.616Z,4.38
2023-09-23T16:50:40.421Z,4.63
2023-09-23T16:53:07.225Z,3.63
2023-09-23T16:55:34.262Z,2.33
2023-09-23T16:58:01.010Z,4.10
2023-09-23T17:00:29.098Z,4.45
2023-09-23T17:02:56.058Z,4.55
2023-09-23T17:05:22.968Z,4.47
2023-09-23T17:07:49.760Z,3.90
2023-09-23T17:10:16.604Z,3.53
2023-09-23T17:12:43.356Z,4.07
2023-09-23T17:15:11.018Z,2.65
2023-09-23T17:17:39.208Z,5.10
2023-09-23T17:20:07.265Z,7.90
2023-09-23T17:22:34.144Z,4.35
2023-09-23T17:25:00.985Z,4.13
2023-09-23T17:27:27.792Z,4.32
2023-09-23T17:29:54.695Z,3.90
2023-09-23T17:32:21.459Z,5.63
2023-09-23T17:34:49.537Z,4.38
2023-09-23T17:37:16.283Z,6.60
2023-09-23T17:39:43.038Z,4.05
2023-09-23T17:42:09.865Z,5.45
2023-09-23T17:44:37.976Z,4.78
2023-09-23T17:47:05.043Z,6.10
2023-09-23T17:49:31.794Z,6.80
2023-09-23T17:51:59.860Z,5.40
2023-09-23T17:54:26.655Z,3.80
2023-09-23T17:56:53.573Z,4.43
2023-09-23T17:59:20.415Z,4.00
2023-09-23T18:01:47.281Z,7.03
2023-09-23T18:04:14.291Z,4.25
2023-09-23T18:06:41.407Z,5.28
2023-09-23T18:09:09.987Z,4.45
2023-09-23T18:11:36.940Z,7.20
2023-09-23T18:14:03.984Z,4.70
2023-09-23T18:16:30.909Z,5.65
2023-09-23T18:18:57.741Z,6.22
2023-09-23T18:21:24.978Z,5.88
2023-09-23T18:23:52.188Z,8.18
2023-09-23T18:26:20.580Z,5.95
2023-09-23T18:28:47.352Z,3.72
2023-09-23T18:31:14.405Z,3.30
2023-09-23T18:33:41.332Z,8.32
2023-09-23T18:36:08.298Z,5.63
2023-09-23T18:38:35.108Z,7.35
2023-09-23T18:41:01.878Z,4.25
2023-09-23T18:43:29.999Z,7.07
2023-09-23T18:45:56.811Z,3.92
2023-09-23T18:48:28.019Z,7.68
2023-09-23T18:50:56.216Z,6.18
2023-09-23T18:53:23.108Z,7.97
2023-09-23T18:55:50.023Z,8.50
2023-09-23T18:58:16.884Z,6.13
2023-09-23T19:00:45.181Z,6.63
2023-09-23T19:03:12.242Z,6.40
2023-09-23T19:05:39.330Z,7.72
2023-09-23T19:08:06.560Z,5.15
2023-09-23T19:10:33.393Z,8.30
2023-09-23T19:13:00.245Z,7.13
2023-09-23T19:15:28.265Z,6.22
2023-09-23T19:17:56.577Z,9.13
2023-09-23T19:20:23.553Z,7.13
2023-09-23T19:22:50.429Z,8.52
2023-09-23T19:25:17.363Z,7.43
2023-09-23T19:27:44.346Z,6.18
2023-09-23T19:30:12.170Z,6.55
2023-09-23T19:32:38.995Z,8.25
2023-09-23T19:35:07.606Z,7.57
2023-09-23T19:37:34.583Z,5.47
2023-09-23T19:40:02.161Z,6.20
2023-09-23T19:42:28.933Z,6.18
2023-09-23T19:44:55.843Z,6.45
2023-09-23T19:47:22.738Z,5.85
2023-09-23T19:49:50.100Z,7.05
2023-09-23T19:52:18.207Z,11.63
2023-09-23T19:54:44.982Z,10.77
2023-09-23T19:57:11.768Z,5.45
2023-09-23T19:59:38.612Z,8.52
2023-09-23T20:02:05.470Z,8.30
2023-09-23T20:04:32.264Z,7.90
2023-09-23T20:06:59.216Z,9.43
2023-09-23T20:09:27.359Z,6.70
2023-09-23T20:11:54.233Z,6.97
2023-09-23T20:14:21.128Z,8.57
2023-09-23T20:16:48.020Z,6.88
2023-09-23T20:19:14.795Z,6.70
2023-09-23T20:21:41.671Z,6.15
2023-09-23T20:24:08.864Z,10.32
2023-09-23T20:26:36.988Z,9.20
2023-09-23T20:29:03.966Z,8.00
2023-09-23T20:31:30.791Z,6.78
2023-09-23T20:33:57.518Z,7.93
2023-09-23T20:36:24.586Z,6.28
2023-09-23T20:38:51.393Z,5.30
2023-09-23T20:41:18.192Z,6.50
2023-09-23T20:43:46.577Z,5.35
2023-09-23T20:46:13.756Z,6.70
2023-09-23T20:48:40.682Z,5.70
2023-09-23T20:51:07.546Z,7.95
2023-09-23T20:53:34.378Z,6.47
2023-09-23T20:56:01.239Z,7.15
2023-09-23T20:58:28.006Z,9.23
2023-09-23T21:00:56.099Z,10.25
2023-09-23T21:03:23.114Z,8.63
2023-09-23T21:05:50.220Z,7.13
2023-09-23T21:08:17.180Z,7.20
2023-09-23T21:10:44.010Z,10.57
2023-09-23T21:13:10.793Z,6.38
2023-09-23T21:15:37.574Z,7.05
2023-09-23T21:18:06.498Z,9.27
2023-09-23T21:23:02.648Z,8.18
2023-09-23T21:25:29.958Z,8.07
2023-09-23T21:27:56.792Z,7.53
2023-09-23T21:30:23.707Z,10.82
2023-09-23T21:32:50.551Z,11.30
2023-09-23T21:35:18.842Z,12.85
2023-09-23T21:37:45.642Z,9.25
2023-09-23T21:40:12.531Z,11.48
2023-09-23T21:42:39.340Z,8.98
2023-09-23T21:45:07.509Z,10.50
2023-09-23T21:47:34.408Z,11.55
2023-09-23T21:50:01.256Z,11.02
2023-09-23T21:52:29.399Z,9.63
2023-09-23T21:54:56.216Z,9.52
2023-09-23T21:57:22.981Z,9.43
2023-09-23T21:59:49.913Z,9.60
2023-09-23T22:02:16.793Z,8.75
2023-09-23T22:04:45.635Z,8.68
2023-09-23T22:07:12.387Z,9.02
2023-09-23T22:09:40.460Z,11.60
2023-09-23T22:12:07.329Z,10.13
2023-09-23T22:14:34.105Z,11.55
2023-09-23T22:17:00.898Z,8.88
2023-09-23T22:19:29.773Z,7.60
2023-09-23T22:21:56.607Z,7.72
2023-09-23T22:24:23.397Z,9.52
2023-09-23T22:26:51.647Z,9.82
2023-09-23T22:29:18.626Z,10.35
2023-09-23T22:31:45.595Z,6.55
2023-09-23T22:34:12.357Z,8.52
2023-09-23T22:36:39.098Z,7.57
2023-09-23T22:39:06.165Z,6.13
2023-09-23T22:41:33.240Z,10.30
2023-09-23T22:44:01.343Z,7.22
2023-09-23T22:46:28.213Z,7.90
2023-09-23T22:48:57.524Z,7.78
2023-09-23T22:51:24.286Z,11.18
2023-09-23T22:53:51.568Z,6.85
2023-09-23T22:56:18.810Z,6.80
2023-09-23T22:58:45.636Z,8.65
2023-09-23T23:01:13.865Z,7.07
2023-09-23T23:03:40.806Z,7.88
2023-09-23T23:06:08.333Z,7.72
2023-09-23T23:08:35.422Z,6.50
2023-09-23T23:11:07.115Z,10.40
2023-09-23T23:13:33.885Z,8.07
2023-09-23T23:16:00.600Z,8.20
2023-09-23T23:18:28.859Z,8.80
2023-09-23T23:20:55.666Z,13.63
2023-09-23T23:23:22.519Z,10.13
2023-09-23T23:25:49.336Z,8.15
2023-09-23T23:28:16.051Z,8.85
2023-09-23T23:30:42.864Z,6.80
2023-09-23T23:33:09.774Z,12.23
2023-09-23T23:35:37.929Z,10.45
2023-09-23T23:38:04.810Z,9.80
2023-09-23T23:40:31.517Z,8.23
2023-09-23T23:42:58.345Z,9.77
2023-09-23T23:45:25.139Z,7.78
2023-09-23T23:47:53.670Z,11.60
2023-09-23T23:50:20.557Z,7.22
2023-09-23T23:52:48.662Z,8.68
2023-09-23T23:55:16.213Z,8.77
2023-09-23T23:57:43.048Z,10.27
